Nuriootpa, Australia
Current Conditions -  °F | °C
As of 9:00 PM on Wednesday 26 Nov 2014 (Local Time) from YPAD Reporting Station
Few Clouds Few Clouds  
Wind Chill: 61°   Ceiling: Unl
Heat Index: 61°   Visibility: 6mi
Dew Point: 50°   Wind: 13mph
Humidity: 68%   Direction: 140°SE
Pressure: 30.21"   Gusts: NA
Location:  34.47°S, 139°E
Report Text: YPAD 261100Z 14011KT 9999 FEW025 16/10 Q1023 NOSIG
Loading
Personal Weather Stations






























Interactive Weather Map New forecast layout! Learn more

10-Day Weather Forecast

Advertisements
Track Severe Weather on mobile